sensor_id;sensor_type;location;lat;lon;timestamp;P1;durP1;ratioP1;P2;durP2;ratioP2
10142;SDS011;5112;54.088;13.446;2023-03-14T00:01:58;2.77;;;2.40;;
10142;SDS011;5112;54.088;13.446;2023-03-14T00:12:00;2.23;;;2.07;;
10142;SDS011;5112;54.088;13.446;2023-03-14T00:22:04;2.23;;;2.10;;
10142;SDS011;5112;54.088;13.446;2023-03-14T00:32:06;2.80;;;2.20;;
10142;SDS011;5112;54.088;13.446;2023-03-14T00:42:09;2.93;;;2.30;;
10142;SDS011;5112;54.088;13.446;2023-03-14T00:52:10;2.00;;;1.90;;
10142;SDS011;5112;54.088;13.446;2023-03-14T01:02:13;2.57;;;2.20;;
10142;SDS011;5112;54.088;13.446;2023-03-14T01:12:15;2.67;;;2.47;;
10142;SDS011;5112;54.088;13.446;2023-03-14T01:22:18;3.17;;;2.40;;
10142;SDS011;5112;54.088;13.446;2023-03-14T01:32:21;4.97;;;2.80;;
10142;SDS011;5112;54.088;13.446;2023-03-14T01:42:25;3.38;;;2.63;;
10142;SDS011;5112;54.088;13.446;2023-03-14T01:52:27;2.90;;;2.60;;
10142;SDS011;5112;54.088;13.446;2023-03-14T02:02:36;2.90;;;2.70;;
10142;SDS011;5112;54.088;13.446;2023-03-14T02:12:40;2.60;;;2.40;;
10142;SDS011;5112;54.088;13.446;2023-03-14T02:22:44;3.00;;;2.70;;
10142;SDS011;5112;54.088;13.446;2023-03-14T02:32:49;2.60;;;2.40;;
10142;SDS011;5112;54.088;13.446;2023-03-14T02:42:53;3.60;;;2.63;;
10142;SDS011;5112;54.088;13.446;2023-03-14T02:52:56;2.50;;;2.30;;
10142;SDS011;5112;54.088;13.446;2023-03-14T03:02:58;2.97;;;2.53;;
10142;SDS011;5112;54.088;13.446;2023-03-14T03:13:02;2.63;;;2.40;;
10142;SDS011;5112;54.088;13.446;2023-03-14T03:23:04;2.70;;;2.30;;
10142;SDS011;5112;54.088;13.446;2023-03-14T03:33:07;4.37;;;2.57;;
10142;SDS011;5112;54.088;13.446;2023-03-14T03:43:09;6.03;;;3.00;;
10142;SDS011;5112;54.088;13.446;2023-03-14T03:53:12;5.13;;;2.83;;
10142;SDS011;5112;54.088;13.446;2023-03-14T04:03:14;4.00;;;2.85;;
10142;SDS011;5112;54.088;13.446;2023-03-14T04:13:17;4.90;;;2.63;;
10142;SDS011;5112;54.088;13.446;2023-03-14T04:23:18;3.93;;;2.70;;
10142;SDS011;5112;54.088;13.446;2023-03-14T04:33:21;5.53;;;2.57;;
10142;SDS011;5112;54.088;13.446;2023-03-14T04:43:23;4.20;;;2.70;;
10142;SDS011;5112;54.088;13.446;2023-03-14T04:53:27;3.33;;;2.77;;
10142;SDS011;5112;54.088;13.446;2023-03-14T05:03:29;3.43;;;2.83;;
10142;SDS011;5112;54.088;13.446;2023-03-14T05:13:32;3.47;;;3.17;;
10142;SDS011;5112;54.088;13.446;2023-03-14T05:23:33;3.67;;;3.07;;
10142;SDS011;5112;54.088;13.446;2023-03-14T05:33:36;3.27;;;2.87;;
10142;SDS011;5112;54.088;13.446;2023-03-14T05:43:38;3.97;;;2.80;;
10142;SDS011;5112;54.088;13.446;2023-03-14T05:53:41;3.10;;;2.80;;
10142;SDS011;5112;54.088;13.446;2023-03-14T06:03:43;3.83;;;2.60;;
10142;SDS011;5112;54.088;13.446;2023-03-14T06:13:45;3.07;;;2.63;;
10142;SDS011;5112;54.088;13.446;2023-03-14T06:23:47;4.20;;;3.00;;
10142;SDS011;5112;54.088;13.446;2023-03-14T06:33:50;2.40;;;2.17;;
10142;SDS011;5112;54.088;13.446;2023-03-14T06:43:52;2.80;;;2.53;;
10142;SDS011;5112;54.088;13.446;2023-03-14T06:53:55;2.43;;;2.07;;
10142;SDS011;5112;54.088;13.446;2023-03-14T07:03:57;2.90;;;2.60;;
10142;SDS011;5112;54.088;13.446;2023-03-14T07:14:00;2.33;;;2.13;;
10142;SDS011;5112;54.088;13.446;2023-03-14T07:24:02;3.93;;;2.43;;
10142;SDS011;5112;54.088;13.446;2023-03-14T07:34:05;3.67;;;2.30;;
10142;SDS011;5112;54.088;13.446;2023-03-14T07:44:06;3.00;;;1.70;;
10142;SDS011;5112;54.088;13.446;2023-03-14T07:54:10;2.03;;;1.90;;
10142;SDS011;5112;54.088;13.446;2023-03-14T08:04:11;4.37;;;2.10;;
10142;SDS011;5112;54.088;13.446;2023-03-14T08:14:14;3.40;;;1.60;;
10142;SDS011;5112;54.088;13.446;2023-03-14T08:24:16;2.93;;;2.10;;
10142;SDS011;5112;54.088;13.446;2023-03-14T08:34:19;5.67;;;1.90;;
10142;SDS011;5112;54.088;13.446;2023-03-14T08:44:21;2.50;;;1.27;;
10142;SDS011;5112;54.088;13.446;2023-03-14T08:54:24;1.60;;;1.50;;
10142;SDS011;5112;54.088;13.446;2023-03-14T09:04:26;1.67;;;1.20;;
10142;SDS011;5112;54.088;13.446;2023-03-14T09:14:29;2.73;;;1.43;;
10142;SDS011;5112;54.088;13.446;2023-03-14T09:24:30;1.10;;;1.10;;
10142;SDS011;5112;54.088;13.446;2023-03-14T09:34:33;2.23;;;1.30;;
10142;SDS011;5112;54.088;13.446;2023-03-14T09:44:36;3.23;;;1.20;;
10142;SDS011;5112;54.088;13.446;2023-03-14T09:54:46;1.93;;;1.30;;
10142;SDS011;5112;54.088;13.446;2023-03-14T10:04:52;2.17;;;1.00;;
10142;SDS011;5112;54.088;13.446;2023-03-14T10:14:56;2.40;;;1.40;;
10142;SDS011;5112;54.088;13.446;2023-03-14T10:25:05;1.77;;;1.20;;
10142;SDS011;5112;54.088;13.446;2023-03-14T10:35:25;1.43;;;1.00;;
10142;SDS011;5112;54.088;13.446;2023-03-14T10:45:31;2.07;;;1.50;;
10142;SDS011;5112;54.088;13.446;2023-03-14T10:55:41;1.77;;;1.30;;
10142;SDS011;5112;54.088;13.446;2023-03-14T11:05:46;2.87;;;1.23;;
10142;SDS011;5112;54.088;13.446;2023-03-14T11:15:59;3.10;;;1.57;;
10142;SDS011;5112;54.088;13.446;2023-03-14T11:26:11;3.17;;;1.53;;
10142;SDS011;5112;54.088;13.446;2023-03-14T11:36:24;2.00;;;1.33;;
10142;SDS011;5112;54.088;13.446;2023-03-14T11:46:31;2.03;;;1.20;;
10142;SDS011;5112;54.088;13.446;2023-03-14T11:56:37;3.10;;;2.03;;
10142;SDS011;5112;54.088;13.446;2023-03-14T12:06:45;1.93;;;1.73;;
10142;SDS011;5112;54.088;13.446;2023-03-14T12:16:52;1.73;;;1.60;;
10142;SDS011;5112;54.088;13.446;2023-03-14T12:26:57;1.80;;;1.40;;
10142;SDS011;5112;54.088;13.446;2023-03-14T12:37:04;1.50;;;1.40;;
10142;SDS011;5112;54.088;13.446;2023-03-14T12:57:47;3.10;;;1.50;;
10142;SDS011;5112;54.088;13.446;2023-03-14T13:08:06;2.77;;;0.90;;
10142;SDS011;5112;54.088;13.446;2023-03-14T13:18:12;2.07;;;1.33;;
10142;SDS011;5112;54.088;13.446;2023-03-14T13:28:16;2.03;;;1.70;;
10142;SDS011;5112;54.088;13.446;2023-03-14T13:38:21;4.17;;;2.33;;
10142;SDS011;5112;54.088;13.446;2023-03-14T13:48:26;3.07;;;1.27;;
10142;SDS011;5112;54.088;13.446;2023-03-14T13:58:31;6.70;;;4.20;;
10142;SDS011;5112;54.088;13.446;2023-03-14T14:08:33;2.80;;;1.50;;
10142;SDS011;5112;54.088;13.446;2023-03-14T14:18:36;2.03;;;1.87;;
10142;SDS011;5112;54.088;13.446;2023-03-14T14:28:39;3.77;;;1.43;;
10142;SDS011;5112;54.088;13.446;2023-03-14T14:38:42;2.60;;;1.40;;
10142;SDS011;5112;54.088;13.446;2023-03-14T14:48:50;3.67;;;1.27;;
10142;SDS011;5112;54.088;13.446;2023-03-14T14:59:18;3.93;;;1.73;;
10142;SDS011;5112;54.088;13.446;2023-03-14T15:09:23;7.57;;;2.10;;
10142;SDS011;5112;54.088;13.446;2023-03-14T15:19:26;4.10;;;1.73;;
10142;SDS011;5112;54.088;13.446;2023-03-14T15:29:30;4.23;;;2.00;;
10142;SDS011;5112;54.088;13.446;2023-03-14T15:39:33;4.03;;;2.17;;
10142;SDS011;5112;54.088;13.446;2023-03-14T15:49:35;4.47;;;2.40;;
10142;SDS011;5112;54.088;13.446;2023-03-14T15:59:38;4.90;;;2.43;;
10142;SDS011;5112;54.088;13.446;2023-03-14T16:09:39;4.10;;;2.10;;
10142;SDS011;5112;54.088;13.446;2023-03-14T16:19:42;5.93;;;2.70;;
10142;SDS011;5112;54.088;13.446;2023-03-14T16:29:44;4.80;;;2.27;;
10142;SDS011;5112;54.088;13.446;2023-03-14T16:39:48;5.33;;;2.30;;
10142;SDS011;5112;54.088;13.446;2023-03-14T16:49:50;4.23;;;2.40;;
10142;SDS011;5112;54.088;13.446;2023-03-14T16:59:53;11.10;;;2.63;;
10142;SDS011;5112;54.088;13.446;2023-03-14T17:09:55;7.63;;;2.37;;
10142;SDS011;5112;54.088;13.446;2023-03-14T17:19:58;7.00;;;2.93;;
10142;SDS011;5112;54.088;13.446;2023-03-14T17:29:59;9.70;;;3.45;;
10142;SDS011;5112;54.088;13.446;2023-03-14T17:40:03;6.80;;;3.08;;
10142;SDS011;5112;54.088;13.446;2023-03-14T17:50:05;6.10;;;2.50;;
10142;SDS011;5112;54.088;13.446;2023-03-14T18:00:10;6.83;;;2.87;;
10142;SDS011;5112;54.088;13.446;2023-03-14T18:10:12;6.63;;;2.47;;
10142;SDS011;5112;54.088;13.446;2023-03-14T18:20:17;8.60;;;2.83;;
10142;SDS011;5112;54.088;13.446;2023-03-14T18:30:19;7.23;;;2.60;;
10142;SDS011;5112;54.088;13.446;2023-03-14T18:40:22;7.53;;;2.73;;
10142;SDS011;5112;54.088;13.446;2023-03-14T18:50:24;8.33;;;2.60;;
10142;SDS011;5112;54.088;13.446;2023-03-14T19:00:27;8.17;;;2.50;;
10142;SDS011;5112;54.088;13.446;2023-03-14T19:10:28;10.20;;;2.80;;
10142;SDS011;5112;54.088;13.446;2023-03-14T19:20:33;7.80;;;2.45;;
10142;SDS011;5112;54.088;13.446;2023-03-14T19:30:35;5.00;;;2.67;;
10142;SDS011;5112;54.088;13.446;2023-03-14T19:40:39;7.18;;;2.58;;
10142;SDS011;5112;54.088;13.446;2023-03-14T19:50:41;10.33;;;3.50;;
10142;SDS011;5112;54.088;13.446;2023-03-14T20:00:44;8.40;;;2.80;;
10142;SDS011;5112;54.088;13.446;2023-03-14T20:10:46;7.30;;;3.10;;
10142;SDS011;5112;54.088;13.446;2023-03-14T20:20:49;7.00;;;2.80;;
10142;SDS011;5112;54.088;13.446;2023-03-14T20:30:51;6.97;;;2.65;;
10142;SDS011;5112;54.088;13.446;2023-03-14T20:40:55;8.98;;;2.85;;
10142;SDS011;5112;54.088;13.446;2023-03-14T20:50:57;9.50;;;3.00;;
10142;SDS011;5112;54.088;13.446;2023-03-14T21:01:01;9.65;;;2.80;;
10142;SDS011;5112;54.088;13.446;2023-03-14T21:11:03;8.90;;;3.20;;
10142;SDS011;5112;54.088;13.446;2023-03-14T21:21:07;7.60;;;2.90;;
10142;SDS011;5112;54.088;13.446;2023-03-14T21:31:08;6.63;;;2.50;;
10142;SDS011;5112;54.088;13.446;2023-03-14T21:41:12;7.53;;;2.10;;
10142;SDS011;5112;54.088;13.446;2023-03-14T21:51:14;7.03;;;2.47;;
10142;SDS011;5112;54.088;13.446;2023-03-14T22:01:17;6.90;;;2.20;;
10142;SDS011;5112;54.088;13.446;2023-03-14T22:11:19;4.80;;;1.70;;
10142;SDS011;5112;54.088;13.446;2023-03-14T22:21:22;5.30;;;1.87;;
10142;SDS011;5112;54.088;13.446;2023-03-14T22:31:24;6.22;;;2.40;;
10142;SDS011;5112;54.088;13.446;2023-03-14T22:41:27;7.57;;;2.07;;
10142;SDS011;5112;54.088;13.446;2023-03-14T22:51:28;4.80;;;2.05;;
10142;SDS011;5112;54.088;13.446;2023-03-14T23:01:31;6.45;;;2.22;;
10142;SDS011;5112;54.088;13.446;2023-03-14T23:11:33;6.77;;;1.90;;
10142;SDS011;5112;54.088;13.446;2023-03-14T23:21:36;7.43;;;2.33;;
10142;SDS011;5112;54.088;13.446;2023-03-14T23:31:38;5.72;;;2.50;;
10142;SDS011;5112;54.088;13.446;2023-03-14T23:41:42;8.25;;;2.53;;
10142;SDS011;5112;54.088;13.446;2023-03-14T23:51:43;6.38;;;2.10;;
